Time;durP1;ratioP1;P1;durP2;ratioP2;P2;SDS_P1;SDS_P2;PMS_P1;PMS_P2;Temp;Humidity;BMP_temperature;BMP_pressure;BME280_temperature;BME280_humidity;BME280_pressure;Samples;Min_cycle;Max_cycle;Signal;HPM_P1;HPM_P2
2024/02/10 00:00:44;0.00;0.00;0.62;0.00;0.00;0.62;2.37;1.27;;;21.50;26.30;;;;;;2260970;61;20365;-67
2024/02/10 00:03:30;0.00;0.00;0.62;0.00;0.00;0.62;3.10;1.37;;;21.50;26.30;;;;;;2261089;61;20395;-68
2024/02/10 00:06:15;0.00;0.00;0.62;0.00;0.00;0.62;1.90;1.40;;;21.50;26.30;;;;;;2260876;61;20447;-71
2024/02/10 00:09:01;0.00;0.00;0.62;0.00;0.00;0.62;2.07;1.30;;;21.50;26.30;;;;;;2258545;61;20369;-67
2024/02/10 00:11:46;0.00;0.00;0.62;0.00;0.00;0.62;1.90;1.40;;;21.50;26.30;;;;;;2261462;61;20912;-67
2024/02/10 00:14:34;0.00;0.00;0.62;0.00;0.00;0.62;2.07;1.37;;;21.50;26.30;;;;;;2253505;61;20412;-68
2024/02/10 00:17:18;0.00;0.00;0.62;0.00;0.00;0.62;1.80;1.10;;;21.50;26.30;;;;;;2256841;61;20410;-67
2024/02/10 00:20:05;0.00;0.00;0.62;0.00;0.00;0.62;1.87;1.30;;;21.50;26.80;;;;;;2256944;61;20369;-66
2024/02/10 00:22:50;0.00;0.00;0.62;0.00;0.00;0.62;3.57;1.37;;;21.50;26.30;;;;;;2254195;61;21027;-66
2024/02/10 00:25:38;0.00;0.00;0.62;0.00;0.00;0.62;2.13;1.20;;;21.50;26.30;;;;;;2254657;61;21159;-67
2024/02/10 00:28:22;0.00;0.00;0.62;0.00;0.00;0.62;1.97;1.50;;;21.50;26.30;;;;;;2257747;61;20380;-65
2024/02/10 00:31:07;0.00;0.00;0.62;0.00;0.00;0.62;2.30;1.30;;;21.50;26.30;;;;;;2260476;61;20779;-68
2024/02/10 00:33:52;0.00;0.00;0.62;0.00;0.00;0.62;1.97;1.13;;;21.50;26.30;;;;;;2257131;61;20487;-66
2024/02/10 00:36:36;0.00;0.00;0.62;0.00;0.00;0.62;2.03;1.20;;;21.50;26.30;;;;;;2259006;61;20406;-66
2024/02/10 00:39:21;0.00;0.00;0.62;0.00;0.00;0.62;1.87;1.20;;;21.50;26.30;;;;;;2256656;61;20373;-68
2024/02/10 00:42:07;0.00;0.00;0.62;0.00;0.00;0.62;2.47;1.47;;;21.50;26.30;;;;;;2257286;61;20346;-66
2024/02/10 00:44:51;0.00;0.00;0.62;0.00;0.00;0.62;2.50;1.30;;;21.50;26.30;;;;;;2256797;61;20786;-67
2024/02/10 00:47:36;0.00;0.00;0.62;0.00;0.00;0.62;1.80;1.27;;;21.50;26.30;;;;;;2261055;61;20442;-66
2024/02/10 00:50:21;0.00;0.00;0.62;0.00;0.00;0.62;1.90;1.10;;;21.50;26.30;;;;;;2257833;61;20369;-66
2024/02/10 00:53:08;0.00;0.00;0.62;0.00;0.00;0.62;2.10;1.20;;;21.50;26.30;;;;;;2531213;53;20367;-70
2024/02/10 00:55:52;0.00;0.00;0.62;0.00;0.00;0.62;2.00;1.27;;;21.50;26.30;;;;;;2261067;61;20935;-66
2024/02/10 00:58:44;0.00;0.00;0.62;0.00;0.00;0.62;2.00;1.20;;;21.50;26.30;;;;;;2256206;61;20413;-68
2024/02/10 01:01:31;0.00;0.00;0.62;0.00;0.00;0.62;2.47;1.40;;;21.50;26.30;;;;;;2257182;61;20489;-67
2024/02/10 01:04:16;0.00;0.00;0.62;0.00;0.00;0.62;1.70;1.03;;;21.50;26.30;;;;;;2257249;61;20346;-66
2024/02/10 01:07:01;0.00;0.00;0.62;0.00;0.00;0.62;2.10;1.53;;;21.50;26.30;;;;;;2260099;61;20424;-67
2024/02/10 01:09:46;0.00;0.00;0.62;0.00;0.00;0.62;1.90;1.33;;;21.50;26.30;;;;;;2261067;61;20365;-66
2024/02/10 01:12:31;0.00;0.00;0.62;0.00;0.00;0.62;1.90;1.10;;;21.50;26.30;;;;;;2261573;61;20369;-66
2024/02/10 01:15:18;0.00;0.00;0.62;0.00;0.00;0.62;2.37;1.40;;;21.50;26.30;;;;;;2777756;45;20492;-66
2024/02/10 01:18:04;0.00;0.00;0.62;0.00;0.00;0.62;2.07;1.00;;;21.50;26.30;;;;;;2263375;61;20369;-67
2024/02/10 01:20:49;0.00;0.00;0.62;0.00;0.00;0.62;2.03;1.30;;;21.50;26.30;;;;;;2260372;61;20436;-66
2024/02/10 01:23:34;0.00;0.00;0.62;0.00;0.00;0.62;1.90;1.30;;;21.50;26.30;;;;;;2262940;61;20756;-68
2024/02/10 01:26:18;0.00;0.00;0.62;0.00;0.00;0.62;2.27;1.53;;;21.50;26.30;;;;;;2261329;61;20808;-67
2024/02/10 01:29:08;0.00;0.00;0.62;0.00;0.00;0.62;2.20;1.43;;;21.50;26.30;;;;;;2257734;61;20944;-67
2024/02/10 01:31:54;0.00;0.00;0.62;0.00;0.00;0.62;1.83;1.13;;;21.50;26.30;;;;;;2257235;61;20370;-67
2024/02/10 01:34:39;0.00;0.00;0.62;0.00;0.00;0.62;1.90;1.27;;;21.50;26.30;;;;;;2257109;61;20377;-67
2024/02/10 01:37:24;0.00;0.00;0.62;0.00;0.00;0.62;1.60;1.10;;;21.50;26.30;;;;;;2493305;53;20703;-66
2024/02/10 01:40:11;0.00;0.00;0.62;0.00;0.00;0.62;1.70;1.20;;;21.50;26.30;;;;;;2257357;61;20464;-67
2024/02/10 01:42:55;0.00;0.00;0.62;0.00;0.00;0.62;1.70;1.03;;;21.50;26.30;;;;;;2256576;61;20366;-66
2024/02/10 01:45:42;0.00;0.00;0.62;0.00;0.00;0.62;1.90;1.20;;;21.50;26.30;;;;;;2257181;61;21197;-67
2024/02/10 01:48:28;0.00;0.00;0.62;0.00;0.00;0.62;2.13;1.23;;;21.50;26.30;;;;;;2256834;61;20478;-66
2024/02/10 01:51:14;0.00;0.00;0.62;0.00;0.00;0.62;2.00;1.20;;;21.50;26.30;;;;;;2259474;61;20461;-66
2024/02/10 01:53:59;0.00;0.00;0.62;0.00;0.00;0.62;1.90;1.20;;;21.50;26.30;;;;;;2260973;61;20365;-66
2024/02/10 01:56:45;0.00;0.00;0.62;0.00;0.00;0.62;1.80;1.23;;;21.50;26.30;;;;;;2261261;61;20502;-66
2024/02/10 01:59:31;0.00;0.00;0.62;0.00;0.00;0.62;1.90;1.10;;;21.50;26.30;;;;;;2462959;45;20928;-66
2024/02/10 02:02:17;0.00;0.00;0.62;0.00;0.00;0.62;1.70;1.03;;;21.50;26.30;;;;;;2261091;61;20885;-68
2024/02/10 02:05:04;0.00;0.00;0.62;0.00;0.00;0.62;1.87;1.13;;;21.50;26.30;;;;;;2260916;61;20388;-66
2024/02/10 02:07:51;0.00;0.00;0.62;0.00;0.00;0.62;2.23;1.30;;;21.50;26.30;;;;;;2264697;61;20381;-66
2024/02/10 02:10:35;0.00;0.00;0.62;0.00;0.00;0.62;1.90;1.23;;;21.50;26.30;;;;;;2261359;61;20895;-68
2024/02/10 02:13:22;0.00;0.00;0.62;0.00;0.00;0.62;1.80;1.20;;;21.50;26.30;;;;;;2261200;61;20429;-65
2024/02/10 02:16:11;0.00;0.00;0.62;0.00;0.00;0.62;1.93;1.20;;;21.50;26.80;;;;;;2261655;61;20397;-66
2024/02/10 02:18:57;0.00;0.00;0.62;0.00;0.00;0.62;1.60;1.00;;;21.50;26.90;;;;;;2261560;61;20365;-66
2024/02/10 02:21:43;0.00;0.00;0.62;0.00;0.00;0.62;2.30;1.23;;;21.50;26.30;;;;;;2261288;61;20545;-66
2024/02/10 02:24:30;0.00;0.00;0.62;0.00;0.00;0.62;2.00;1.20;;;21.50;26.30;;;;;;2261453;61;20893;-67
2024/02/10 02:27:15;0.00;0.00;0.62;0.00;0.00;0.62;1.77;1.20;;;21.50;26.30;;;;;;2261088;61;20397;-67
2024/02/10 02:30:00;0.00;0.00;0.62;0.00;0.00;0.62;4.33;1.03;;;21.50;26.30;;;;;;2258011;61;20373;-68
2024/02/10 02:32:47;0.00;0.00;0.62;0.00;0.00;0.62;1.83;1.10;;;21.50;26.30;;;;;;2261135;61;20364;-65
2024/02/10 02:35:32;0.00;0.00;0.62;0.00;0.00;0.62;1.47;0.93;;;21.50;26.30;;;;;;2257935;61;20357;-67
2024/02/10 02:38:17;0.00;0.00;0.62;0.00;0.00;0.62;1.57;0.83;;;21.50;26.30;;;;;;2257481;61;20862;-66
2024/02/10 02:41:03;0.00;0.00;0.62;0.00;0.00;0.62;2.03;1.30;;;21.50;26.30;;;;;;2254020;61;20878;-65
2024/02/10 02:43:48;0.00;0.00;0.62;0.00;0.00;0.62;2.10;1.50;;;21.50;26.30;;;;;;2256806;61;20409;-68
2024/02/10 02:46:35;0.00;0.00;0.62;0.00;0.00;0.62;2.43;1.33;;;21.50;26.30;;;;;;2256989;61;20879;-68
2024/02/10 02:49:19;0.00;0.00;0.62;0.00;0.00;0.62;2.47;1.33;;;21.50;26.30;;;;;;2256665;61;20420;-68
2024/02/10 02:52:07;0.00;0.00;0.62;0.00;0.00;0.62;1.60;1.00;;;21.50;26.30;;;;;;2256899;61;20450;-67
2024/02/10 02:54:53;0.00;0.00;0.62;0.00;0.00;0.62;1.80;1.00;;;21.50;26.30;;;;;;2256474;61;20365;-68
2024/02/10 02:57:39;0.00;0.00;0.62;0.00;0.00;0.62;2.20;1.47;;;21.50;26.30;;;;;;2258423;61;20860;-67
2024/02/10 03:00:24;0.00;0.00;0.62;0.00;0.00;0.62;1.67;1.00;;;21.50;26.30;;;;;;2257265;61;20377;-67
2024/02/10 03:03:08;0.00;0.00;0.62;0.00;0.00;0.62;1.80;1.10;;;21.50;26.30;;;;;;2260335;61;20930;-67
2024/02/10 03:05:53;0.00;0.00;0.62;0.00;0.00;0.62;1.67;1.10;;;21.50;26.30;;;;;;2255988;61;20482;-67
2024/02/10 03:08:42;0.00;0.00;0.62;0.00;0.00;0.62;1.60;1.00;;;21.50;26.30;;;;;;2256411;61;20366;-67
2024/02/10 03:11:28;0.00;0.00;0.62;0.00;0.00;0.62;1.50;0.93;;;21.50;26.30;;;;;;2255743;61;20362;-67
2024/02/10 03:14:14;0.00;0.00;0.62;0.00;0.00;0.62;1.97;1.37;;;21.50;26.30;;;;;;2256389;61;20361;-67
2024/02/10 03:17:00;0.00;0.00;0.62;0.00;0.00;0.62;2.43;1.23;;;21.50;26.30;;;;;;2256320;61;20417;-67
2024/02/10 03:19:46;0.00;0.00;0.62;0.00;0.00;0.62;1.60;1.07;;;21.50;26.30;;;;;;2258350;61;20958;-66
2024/02/10 03:22:31;0.00;0.00;0.62;0.00;0.00;0.62;1.47;0.90;;;21.50;26.90;;;;;;2260395;61;20451;-67
2024/02/10 03:25:15;0.00;0.00;0.62;0.00;0.00;0.62;2.17;1.30;;;21.50;26.30;;;;;;2260425;61;20369;-67
2024/02/10 03:28:03;0.00;0.00;0.62;0.00;0.00;0.62;1.50;0.93;;;21.50;26.30;;;;;;2259861;61;20444;-67
2024/02/10 03:30:50;0.00;0.00;0.62;0.00;0.00;0.62;1.90;1.20;;;21.60;26.40;;;;;;2257106;61;20373;-67
2024/02/10 03:33:35;0.00;0.00;0.62;0.00;0.00;0.62;1.80;1.00;;;21.50;26.30;;;;;;2255899;61;21006;-67
2024/02/10 03:36:20;0.00;0.00;0.62;0.00;0.00;0.62;2.17;1.07;;;21.50;26.30;;;;;;2256322;61;20441;-67
2024/02/10 03:39:07;0.00;0.00;0.62;0.00;0.00;0.62;1.80;1.10;;;21.50;26.30;;;;;;2256607;61;20708;-67
2024/02/10 03:41:52;0.00;0.00;0.62;0.00;0.00;0.62;1.60;1.00;;;21.50;26.30;;;;;;2255703;61;20429;-67
2024/02/10 03:44:36;0.00;0.00;0.62;0.00;0.00;0.62;1.60;1.00;;;21.50;26.30;;;;;;2256112;61;20366;-67
2024/02/10 03:47:23;0.00;0.00;0.62;0.00;0.00;0.62;1.70;1.33;;;21.50;26.30;;;;;;2256306;61;20390;-66
2024/02/10 03:50:09;0.00;0.00;0.62;0.00;0.00;0.62;1.90;1.00;;;21.60;26.40;;;;;;2255936;61;20370;-67
2024/02/10 03:52:57;0.00;0.00;0.62;0.00;0.00;0.62;1.60;1.10;;;21.50;26.30;;;;;;2256353;61;20420;-66
2024/02/10 03:55:42;0.00;0.00;0.62;0.00;0.00;0.62;1.60;1.20;;;21.50;26.30;;;;;;2256140;61;20448;-67
2024/02/10 03:58:26;0.00;0.00;0.62;0.00;0.00;0.62;1.70;0.90;;;21.60;26.40;;;;;;2260375;61;20361;-68
2024/02/10 04:01:13;0.00;0.00;0.62;0.00;0.00;0.62;1.80;1.17;;;21.50;26.30;;;;;;2256872;61;20356;-68
2024/02/10 04:04:02;0.00;0.00;0.62;0.00;0.00;0.62;1.80;1.07;;;21.60;26.40;;;;;;2257643;61;20913;-67
2024/02/10 04:06:47;0.00;0.00;0.62;0.00;0.00;0.62;2.20;1.07;;;21.60;26.40;;;;;;2253122;61;20527;-67
2024/02/10 04:09:32;0.00;0.00;0.62;0.00;0.00;0.62;1.63;1.00;;;21.60;26.40;;;;;;2256509;61;20409;-66
2024/02/10 04:12:17;0.00;0.00;0.62;0.00;0.00;0.62;1.63;1.20;;;21.50;26.30;;;;;;2255763;61;20505;-67
2024/02/10 04:15:04;0.00;0.00;0.62;0.00;0.00;0.62;2.10;1.37;;;21.50;26.30;;;;;;2256148;61;20366;-69
2024/02/10 04:17:52;0.00;0.00;0.62;0.00;0.00;0.62;2.07;1.30;;;21.60;26.50;;;;;;2256222;61;20697;-67
2024/02/10 04:20:41;0.00;0.00;0.62;0.00;0.00;0.62;1.77;1.00;;;21.50;26.30;;;;;;2256613;61;20362;-67
2024/02/10 04:23:29;0.00;0.00;0.62;0.00;0.00;0.62;1.60;1.00;;;21.50;26.30;;;;;;2256502;61;20861;-67
2024/02/10 04:26:14;0.00;0.00;0.62;0.00;0.00;0.62;1.40;0.83;;;21.60;26.40;;;;;;2258256;61;20404;-68
2024/02/10 04:29:00;0.00;0.00;0.62;0.00;0.00;0.62;1.70;1.10;;;21.60;26.40;;;;;;2260487;61;20388;-67
2024/02/10 04:31:44;0.00;0.00;0.62;0.00;0.00;0.62;1.70;1.03;;;21.60;26.40;;;;;;2260362;61;20445;-67
2024/02/10 04:34:31;0.00;0.00;0.62;0.00;0.00;0.62;1.67;1.27;;;21.50;26.30;;;;;;2256545;61;20809;-67
2024/02/10 04:37:19;0.00;0.00;0.62;0.00;0.00;0.62;1.60;1.00;;;21.60;26.40;;;;;;2253068;61;20447;-67
2024/02/10 04:40:07;0.00;0.00;0.62;0.00;0.00;0.62;1.67;1.27;;;21.60;26.40;;;;;;2255996;61;20978;-67
2024/02/10 04:42:52;0.00;0.00;0.62;0.00;0.00;0.62;1.67;1.00;;;21.60;26.40;;;;;;2256408;61;20374;-68
2024/02/10 04:45:37;0.00;0.00;0.62;0.00;0.00;0.62;1.67;1.00;;;21.60;26.40;;;;;;2256374;61;20932;-68
2024/02/10 04:48:21;0.00;0.00;0.62;0.00;0.00;0.62;1.60;0.97;;;21.60;26.40;;;;;;2255720;61;20446;-67
2024/02/10 04:51:06;0.00;0.00;0.62;0.00;0.00;0.62;1.63;1.00;;;21.60;26.40;;;;;;2256276;61;20416;-68
2024/02/10 04:53:51;0.00;0.00;0.62;0.00;0.00;0.62;1.40;0.90;;;21.60;26.40;;;;;;2252818;61;20727;-67
2024/02/10 04:56:36;0.00;0.00;0.62;0.00;0.00;0.62;1.70;1.00;;;21.60;26.40;;;;;;2259274;61;20443;-69
2024/02/10 04:59:26;0.00;0.00;0.62;0.00;0.00;0.62;1.60;1.00;;;21.50;26.30;;;;;;2259940;61;20412;-68
2024/02/10 05:02:11;0.00;0.00;0.62;0.00;0.00;0.62;1.73;0.90;;;21.50;26.40;;;;;;2259394;61;21000;-67
2024/02/10 05:04:56;0.00;0.00;0.62;0.00;0.00;0.62;1.70;1.00;;;21.60;26.40;;;;;;2260227;61;20363;-67
2024/02/10 05:07:42;0.00;0.00;0.62;0.00;0.00;0.62;1.50;0.90;;;21.60;26.40;;;;;;2260149;61;20796;-67
2024/02/10 05:10:28;0.00;0.00;0.62;0.00;0.00;0.62;1.77;1.10;;;21.50;26.40;;;;;;2259353;61;20774;-67
2024/02/10 05:13:13;0.00;0.00;0.62;0.00;0.00;0.62;2.30;1.10;;;21.60;26.50;;;;;;2260114;61;20830;-67
2024/02/10 05:15:57;0.00;0.00;0.62;0.00;0.00;0.62;1.60;0.97;;;21.60;26.50;;;;;;2260279;61;20819;-66
2024/02/10 05:18:42;0.00;0.00;0.62;0.00;0.00;0.62;1.50;0.97;;;21.60;26.50;;;;;;2256461;61;20440;-66
2024/02/10 05:21:32;0.00;0.00;0.62;0.00;0.00;0.62;2.37;1.10;;;21.60;26.40;;;;;;2260223;61;20356;-67
2024/02/10 05:24:17;0.00;0.00;0.62;0.00;0.00;0.62;2.00;1.10;;;21.50;26.40;;;;;;2259323;61;20365;-67
2024/02/10 05:27:06;0.00;0.00;0.62;0.00;0.00;0.62;1.43;0.73;;;21.60;26.40;;;;;;2256196;61;20424;-67
2024/02/10 05:29:52;0.00;0.00;0.62;0.00;0.00;0.62;1.30;0.80;;;21.60;26.50;;;;;;2256319;61;20416;-66
2024/02/10 05:32:38;0.00;0.00;0.62;0.00;0.00;0.62;1.50;0.93;;;21.60;26.50;;;;;;2258285;61;20768;-66
2024/02/10 05:35:24;0.00;0.00;0.62;0.00;0.00;0.62;1.70;0.93;;;21.60;26.40;;;;;;2261012;61;20455;-65
2024/02/10 05:38:09;0.00;0.00;0.62;0.00;0.00;0.62;1.70;1.10;;;21.60;26.50;;;;;;2261258;61;20377;-65
2024/02/10 05:40:54;0.00;0.00;0.62;0.00;0.00;0.62;1.40;0.80;;;21.50;26.40;;;;;;2257393;61;20766;-67
2024/02/10 05:43:40;0.00;0.00;0.62;0.00;0.00;0.62;1.50;0.90;;;21.60;26.50;;;;;;2256656;61;20594;-65
2024/02/10 05:46:25;0.00;0.00;0.62;0.00;0.00;0.62;1.40;0.80;;;21.60;26.50;;;;;;2256301;61;20385;-69
2024/02/10 05:49:09;0.00;0.00;0.62;0.00;0.00;0.62;1.30;0.80;;;21.60;26.50;;;;;;2256713;61;20405;-65
2024/02/10 05:51:54;0.00;0.00;0.62;0.00;0.00;0.62;2.37;1.00;;;21.60;26.50;;;;;;2256885;61;20365;-65
2024/02/10 05:54:40;0.00;0.00;0.62;0.00;0.00;0.62;1.43;0.77;;;21.60;26.50;;;;;;2258286;61;20828;-64
2024/02/10 05:57:25;0.00;0.00;0.62;0.00;0.00;0.62;2.03;1.07;;;21.60;26.50;;;;;;2260798;61;20464;-66
2024/02/10 06:00:14;0.00;0.00;0.62;0.00;0.00;0.62;1.37;0.80;;;21.60;26.50;;;;;;2260997;61;20353;-67
2024/02/10 06:03:00;0.00;0.00;0.62;0.00;0.00;0.62;1.40;0.80;;;21.60;26.50;;;;;;2260819;61;20840;-67
2024/02/10 06:05:44;0.00;0.00;0.62;0.00;0.00;0.62;1.63;0.90;;;21.60;26.50;;;;;;2260704;61;20967;-66
2024/02/10 06:08:29;0.00;0.00;0.62;0.00;0.00;0.62;2.00;1.00;;;21.60;26.50;;;;;;2260850;61;20385;-68
2024/02/10 06:11:18;0.00;0.00;0.62;0.00;0.00;0.62;1.60;1.00;;;21.60;26.50;;;;;;2777185;45;20384;-67
2024/02/10 06:14:07;0.00;0.00;0.62;0.00;0.00;0.62;1.40;0.90;;;21.60;26.50;;;;;;2260775;61;20361;-66
2024/02/10 06:16:55;0.00;0.00;0.62;0.00;0.00;0.62;1.47;0.83;;;21.60;26.50;;;;;;2260721;61;20412;-65
2024/02/10 06:19:40;0.00;0.00;0.62;0.00;0.00;0.62;1.40;0.80;;;21.60;26.50;;;;;;2260867;61;20408;-64
2024/02/10 06:22:26;0.00;0.00;0.62;0.00;0.00;0.62;1.50;0.83;;;21.60;26.50;;;;;;2260896;61;20420;-67
2024/02/10 06:25:11;0.00;0.00;0.62;0.00;0.00;0.62;1.80;0.90;;;21.60;26.50;;;;;;2257225;61;20441;-66
2024/02/10 06:27:59;0.00;0.00;0.62;0.00;0.00;0.62;1.50;0.90;;;21.60;26.50;;;;;;2260735;61;20457;-67
2024/02/10 06:30:46;0.00;0.00;0.62;0.00;0.00;0.62;1.60;0.90;;;21.60;26.50;;;;;;2260465;61;20439;-66
2024/02/10 06:33:32;0.00;0.00;0.62;0.00;0.00;0.62;1.40;0.80;;;21.60;26.50;;;;;;2775594;45;20342;-70
2024/02/10 06:36:18;0.00;0.00;0.62;0.00;0.00;0.62;1.30;0.70;;;21.60;26.50;;;;;;2256545;61;20528;-66
2024/02/10 06:39:03;0.00;0.00;0.62;0.00;0.00;0.62;1.93;0.90;;;21.60;26.50;;;;;;2257818;61;20353;-67
2024/02/10 06:41:50;0.00;0.00;0.62;0.00;0.00;0.62;1.90;1.20;;;21.60;26.50;;;;;;2260667;61;20480;-66
2024/02/10 06:44:39;0.00;0.00;0.62;0.00;0.00;0.62;1.40;0.73;;;21.60;26.50;;;;;;2260694;61;20965;-67
2024/02/10 06:47:24;0.00;0.00;0.62;0.00;0.00;0.62;1.30;0.80;;;21.60;26.50;;;;;;2257150;61;20976;-66
2024/02/10 06:50:14;0.00;0.00;0.62;0.00;0.00;0.62;1.47;0.80;;;21.60;26.50;;;;;;2256653;61;20354;-70
2024/02/10 06:52:59;0.00;0.00;0.62;0.00;0.00;0.62;1.40;0.93;;;21.60;26.50;;;;;;2256604;61;21148;-68
2024/02/10 06:55:44;0.00;0.00;0.62;0.00;0.00;0.62;1.67;0.83;;;21.60;26.50;;;;;;2637434;45;20418;-67
2024/02/10 06:58:29;0.00;0.00;0.62;0.00;0.00;0.62;1.37;0.80;;;21.60;26.50;;;;;;2256664;61;20385;-67
2024/02/10 07:01:17;0.00;0.00;0.62;0.00;0.00;0.62;1.47;0.87;;;21.60;26.50;;;;;;2252827;61;20372;-67
2024/02/10 07:04:02;0.00;0.00;0.62;0.00;0.00;0.62;1.80;0.90;;;21.60;26.50;;;;;;2256251;61;20897;-68
2024/02/10 07:06:53;0.00;0.00;0.62;0.00;0.00;0.62;1.40;0.80;;;21.60;26.50;;;;;;2256627;61;20808;-67
2024/02/10 07:09:38;0.00;0.00;0.62;0.00;0.00;0.62;1.40;0.90;;;21.60;26.50;;;;;;2256100;61;21023;-67
2024/02/10 07:12:22;0.00;0.00;0.62;0.00;0.00;0.62;1.87;1.00;;;21.60;26.50;;;;;;2256789;61;20403;-67
2024/02/10 07:15:08;0.00;0.00;0.62;0.00;0.00;0.62;1.53;0.87;;;21.60;26.50;;;;;;2256183;61;20897;-67
2024/02/10 07:17:53;0.00;0.00;0.62;0.00;0.00;0.62;1.40;0.77;;;21.60;26.50;;;;;;2719525;45;20445;-67
2024/02/10 07:20:40;0.00;0.00;0.62;0.00;0.00;0.62;1.60;0.90;;;21.60;26.50;;;;;;2253294;61;20421;-67
2024/02/10 07:23:29;0.00;0.00;0.62;0.00;0.00;0.62;1.40;1.00;;;21.60;26.50;;;;;;2255915;61;20374;-66
2024/02/10 07:26:13;0.00;0.00;0.62;0.00;0.00;0.62;1.50;0.93;;;21.60;26.50;;;;;;2256622;61;20436;-67
2024/02/10 07:28:58;0.00;0.00;0.62;0.00;0.00;0.62;1.70;0.90;;;21.60;26.50;;;;;;2253203;61;20513;-66
2024/02/10 07:31:45;0.00;0.00;0.62;0.00;0.00;0.62;1.63;1.00;;;21.60;26.50;;;;;;2255762;61;20468;-66
2024/02/10 07:34:30;0.00;0.00;0.62;0.00;0.00;0.62;1.40;0.80;;;21.60;26.50;;;;;;2256284;61;20408;-67
2024/02/10 07:37:15;0.00;0.00;0.62;0.00;0.00;0.62;1.60;0.80;;;21.60;26.50;;;;;;2256168;61;20938;-67
2024/02/10 07:40:01;0.00;0.00;0.62;0.00;0.00;0.62;1.40;0.80;;;21.60;26.50;;;;;;2555449;45;20709;-67
2024/02/10 07:42:46;0.00;0.00;0.62;0.00;0.00;0.62;1.70;0.80;;;21.60;26.50;;;;;;2255808;61;20886;-67
2024/02/10 07:45:31;0.00;0.00;0.62;0.00;0.00;0.62;1.63;1.03;;;21.60;26.60;;;;;;2257078;61;20880;-67
2024/02/10 07:48:17;0.00;0.00;0.62;0.00;0.00;0.62;1.63;1.10;;;21.60;26.50;;;;;;2254426;61;20393;-66
2024/02/10 07:51:02;0.00;0.00;0.62;0.00;0.00;0.62;1.80;1.00;;;21.60;26.50;;;;;;2260348;61;20852;-66
2024/02/10 07:53:46;0.00;0.00;0.62;0.00;0.00;0.62;1.50;1.00;;;21.60;26.50;;;;;;2259623;61;20368;-66
2024/02/10 07:56:33;0.00;0.00;0.62;0.00;0.00;0.62;1.63;0.90;;;21.60;26.60;;;;;;2260323;61;20430;-66
2024/02/10 07:59:17;0.00;0.00;0.62;0.00;0.00;0.62;1.43;0.77;;;21.60;26.60;;;;;;2260314;61;20361;-67
2024/02/10 08:02:04;0.00;0.00;0.62;0.00;0.00;0.62;1.80;0.90;;;21.60;26.50;;;;;;2260045;61;20368;-67
2024/02/10 08:04:51;0.00;0.00;0.62;0.00;0.00;0.62;1.37;0.70;;;21.60;26.50;;;;;;2260232;61;20365;-67
2024/02/10 08:07:35;0.00;0.00;0.62;0.00;0.00;0.62;1.40;0.87;;;21.60;26.60;;;;;;2256539;61;20384;-66
2024/02/10 08:10:20;0.00;0.00;0.62;0.00;0.00;0.62;1.60;1.00;;;21.60;26.50;;;;;;2256992;61;20768;-67
2024/02/10 08:13:06;0.00;0.00;0.62;0.00;0.00;0.62;1.83;1.00;;;21.60;26.60;;;;;;2260432;61;20419;-67
2024/02/10 08:15:50;0.00;0.00;0.62;0.00;0.00;0.62;1.50;0.90;;;21.60;26.60;;;;;;2259601;61;21043;-66
2024/02/10 08:18:36;0.00;0.00;0.62;0.00;0.00;0.62;1.67;0.87;;;21.60;27.10;;;;;;2260307;61;20384;-67
2024/02/10 08:21:24;0.00;0.00;0.62;0.00;0.00;0.62;1.70;0.80;;;21.60;27.10;;;;;;2260387;61;20364;-68
2024/02/10 08:24:10;0.00;0.00;0.62;0.00;0.00;0.62;1.90;0.70;;;21.60;26.60;;;;;;2259775;61;20795;-67
2024/02/10 08:26:55;0.00;0.00;0.62;0.00;0.00;0.62;1.60;1.10;;;21.60;26.60;;;;;;2260386;61;20383;-67
2024/02/10 08:29:42;0.00;0.00;0.62;0.00;0.00;0.62;1.50;0.80;;;21.60;26.60;;;;;;2260378;61;20905;-66
2024/02/10 08:32:29;0.00;0.00;0.62;0.00;0.00;0.62;1.80;1.10;;;21.60;26.60;;;;;;2260352;61;20580;-66
2024/02/10 08:35:16;0.00;0.00;0.62;0.00;0.00;0.62;1.40;0.80;;;21.60;26.60;;;;;;2260397;61;20400;-69
2024/02/10 08:38:00;0.00;0.00;0.62;0.00;0.00;0.62;1.50;0.80;;;21.60;26.60;;;;;;2257324;61;20374;-66
2024/02/10 08:40:45;0.00;0.00;0.62;0.00;0.00;0.62;1.60;0.80;;;21.60;26.60;;;;;;2253109;61;20420;-66
2024/02/10 08:43:30;0.00;0.00;0.62;0.00;0.00;0.62;1.73;0.80;;;21.60;26.60;;;;;;2255913;61;20409;-68
2024/02/10 08:46:16;0.00;0.00;0.62;0.00;0.00;0.62;1.77;1.00;;;21.60;26.60;;;;;;2259605;61;20927;-67
2024/02/10 08:49:01;0.00;0.00;0.62;0.00;0.00;0.62;1.60;0.93;;;21.70;26.70;;;;;;2260151;61;20388;-67
2024/02/10 08:51:49;0.00;0.00;0.62;0.00;0.00;0.62;1.50;0.80;;;21.70;26.70;;;;;;2259415;61;20425;-67
2024/02/10 08:54:35;0.00;0.00;0.62;0.00;0.00;0.62;1.47;0.80;;;21.70;26.70;;;;;;2256261;61;20365;-67
2024/02/10 08:57:25;0.00;0.00;0.62;0.00;0.00;0.62;2.43;0.90;;;21.70;26.70;;;;;;2368157;40;20408;-66
2024/02/10 09:00:11;0.00;0.00;0.62;0.00;0.00;0.62;1.40;0.80;;;21.70;26.70;;;;;;2263902;61;20533;-66
2024/02/10 09:02:57;0.00;0.00;0.62;0.00;0.00;0.62;1.60;0.93;;;21.70;26.70;;;;;;2264650;61;20375;-66
2024/02/10 09:05:42;0.00;0.00;0.62;0.00;0.00;0.62;1.77;0.80;;;21.70;26.70;;;;;;2265027;61;20388;-68
2024/02/10 09:08:26;0.00;0.00;0.62;0.00;0.00;0.62;1.50;0.80;;;21.70;26.70;;;;;;2264627;61;20427;-68
2024/02/10 09:11:11;0.00;0.00;0.62;0.00;0.00;0.62;1.60;0.80;;;21.70;26.70;;;;;;2264978;61;20368;-68
2024/02/10 09:13:56;0.00;0.00;0.62;0.00;0.00;0.62;1.60;1.17;;;21.70;26.70;;;;;;2264169;61;20379;-67
2024/02/10 09:16:40;0.00;0.00;0.62;0.00;0.00;0.62;1.50;0.80;;;21.70;26.70;;;;;;2260636;61;20408;-68
2024/02/10 09:19:26;0.00;0.00;0.62;0.00;0.00;0.62;1.53;0.90;;;21.70;26.70;;;;;;2258022;61;20406;-68
2024/02/10 09:22:11;0.00;0.00;0.62;0.00;0.00;0.62;1.40;0.80;;;21.70;26.70;;;;;;2260750;61;20407;-68
2024/02/10 09:24:55;0.00;0.00;0.62;0.00;0.00;0.62;1.90;1.10;;;21.70;26.70;;;;;;2260518;61;20360;-67
2024/02/10 09:27:40;0.00;0.00;0.62;0.00;0.00;0.62;1.60;1.00;;;21.70;26.70;;;;;;2261139;61;20799;-67
2024/02/10 09:30:25;0.00;0.00;0.62;0.00;0.00;0.62;1.70;1.00;;;21.70;26.70;;;;;;2260639;61;20372;-67
2024/02/10 09:33:24;0.00;0.00;0.62;0.00;0.00;0.62;2.17;1.30;;;21.70;26.70;;;;;;2260632;61;20420;-67
2024/02/10 09:36:14;0.00;0.00;0.62;0.00;0.00;0.62;2.00;1.43;;;21.70;26.70;;;;;;2260556;61;20477;-67
2024/02/10 09:38:59;0.00;0.00;0.62;0.00;0.00;0.62;1.67;1.00;;;21.70;26.70;;;;;;2260902;61;20384;-66
2024/02/10 09:41:44;0.00;0.00;0.62;0.00;0.00;0.62;2.63;1.47;;;21.70;26.70;;;;;;2261103;61;20355;-66
2024/02/10 09:44:29;0.00;0.00;0.62;0.00;0.00;0.62;2.30;1.20;;;21.70;26.70;;;;;;2260371;61;20423;-67
2024/02/10 09:47:14;0.00;0.00;0.62;0.00;0.00;0.62;2.20;1.10;;;21.70;26.70;;;;;;2260898;61;20396;-67
2024/02/10 09:50:03;0.00;0.00;0.62;0.00;0.00;0.62;1.73;1.10;;;21.70;26.70;;;;;;2260988;61;20836;-67
2024/02/10 09:52:49;0.00;0.00;0.62;0.00;0.00;0.62;1.93;1.10;;;21.80;26.70;;;;;;2260728;61;20455;-66
2024/02/10 09:55:34;0.00;0.00;0.62;0.00;0.00;0.62;2.10;1.10;;;21.80;26.70;;;;;;2261187;61;20492;-66
2024/02/10 09:58:19;0.00;0.00;0.62;0.00;0.00;0.62;2.00;1.13;;;21.80;26.70;;;;;;2260616;61;20461;-67
2024/02/10 10:01:06;0.00;0.00;0.62;0.00;0.00;0.62;3.60;1.40;;;21.80;26.70;;;;;;2261266;61;20808;-67
2024/02/10 10:03:51;0.00;0.00;0.62;0.00;0.00;0.62;1.83;1.20;;;21.80;26.70;;;;;;2260961;61;20346;-67
2024/02/10 10:06:39;0.00;0.00;0.62;0.00;0.00;0.62;2.10;1.57;;;21.80;26.70;;;;;;2262462;61;20480;-67
2024/02/10 10:09:29;0.00;0.00;0.62;0.00;0.00;0.62;1.77;1.20;;;21.90;26.70;;;;;;2264391;61;20437;-67
2024/02/10 10:12:18;0.00;0.00;0.62;0.00;0.00;0.62;2.10;1.27;;;21.90;26.70;;;;;;2264442;61;20893;-67
2024/02/10 10:15:04;0.00;0.00;0.62;0.00;0.00;0.62;1.93;1.20;;;21.90;26.70;;;;;;2264566;61;20944;-66
2024/02/10 10:17:50;0.00;0.00;0.62;0.00;0.00;0.62;2.20;1.50;;;21.90;26.70;;;;;;2264673;61;20450;-66
2024/02/10 10:20:34;0.00;0.00;0.62;0.00;0.00;0.62;2.57;1.33;;;21.90;26.70;;;;;;2264023;61;20360;-65
2024/02/10 10:23:18;0.00;0.00;0.62;0.00;0.00;0.62;2.10;1.17;;;21.90;26.70;;;;;;2260714;61;20408;-66
2024/02/10 10:26:05;0.00;0.00;0.62;0.00;0.00;0.62;1.80;1.20;;;22.00;26.70;;;;;;2260712;61;20928;-66
2024/02/10 10:28:50;0.00;0.00;0.62;0.00;0.00;0.62;2.53;1.50;;;22.00;26.70;;;;;;2262168;61;20433;-67
2024/02/10 10:31:37;0.00;0.00;0.62;0.00;0.00;0.62;1.90;1.20;;;22.00;26.70;;;;;;2264807;61;20572;-66
2024/02/10 10:34:22;0.00;0.00;0.62;0.00;0.00;0.62;2.50;1.40;;;22.00;26.70;;;;;;2264263;61;20910;-69
2024/02/10 10:37:08;0.00;0.00;0.62;0.00;0.00;0.62;2.30;1.53;;;22.00;26.70;;;;;;2264478;61;20400;-67
2024/02/10 10:39:56;0.00;0.00;0.62;0.00;0.00;0.62;1.90;1.00;;;22.00;26.70;;;;;;2264530;61;20935;-67
2024/02/10 10:42:47;0.00;0.00;0.62;0.00;0.00;0.62;2.40;1.50;;;22.10;26.80;;;;;;2260715;61;20958;-66
2024/02/10 10:45:33;0.00;0.00;0.62;0.00;0.00;0.62;2.40;1.70;;;22.10;26.80;;;;;;2260650;61;20798;-66
2024/02/10 10:48:18;0.00;0.00;0.62;0.00;0.00;0.62;2.20;1.47;;;22.10;26.80;;;;;;2260842;61;20785;-66
2024/02/10 10:51:07;0.00;0.00;0.62;0.00;0.00;0.62;1.90;1.40;;;22.10;26.80;;;;;;2259774;61;20369;-66
2024/02/10 10:53:52;0.00;0.00;0.62;0.00;0.00;0.62;2.30;1.37;;;22.20;26.80;;;;;;2260333;61;20401;-66